RYR7MC LIMC-LIBR
Flight info
| Callsign | RYR7MC |
|---|---|
| Flight time | N/A |
| Altitude | 35000 |
| Route | VAKON DCT IBUPU DCT NEVMO DCT LISKO DCT UVOKA L612 DOLON |
| Aircraft | B738/M-SDE2E3FGHIRWXY/LB1 |
Departure
| Time | N/A |
|---|---|
| Airport | Milan Malpensa International Airport (LIMC) |
Arrival
| Time | 2026-04-15 21:16 |
|---|---|
| Airport | Brindisi Airport (LIBR) |
| Time | Latitude | Longitude | Altitude | Speed | Heading |
|---|---|---|---|---|---|
| 2026-04-15 20:50 | 42.05740 | 16.04793 | 35105 ft | 411 kts | 141° |
| 2026-04-15 20:50 | 42.01499 | 16.09973 | 35097 ft | 408 kts | 141° |
| 2026-04-15 20:51 | 41.97370 | 16.15012 | 35094 ft | 397 kts | 142° |
| 2026-04-15 20:51 | 41.93286 | 16.19981 | 35024 ft | 397 kts | 142° |
| 2026-04-15 20:51 | 41.91239 | 16.22467 | 34736 ft | 394 kts | 142° |
| 2026-04-15 20:52 | 41.89220 | 16.24921 | 34380 ft | 389 kts | 143° |
| 2026-04-15 20:52 | 41.87236 | 16.27331 | 34161 ft | 381 kts | 143° |
| 2026-04-15 20:52 | 41.85287 | 16.29697 | 33875 ft | 374 kts | 143° |
| 2026-04-15 20:52 | 41.83399 | 16.31985 | 33557 ft | 368 kts | 143° |
| 2026-04-15 20:53 | 41.81530 | 16.34245 | 32816 ft | 367 kts | 143° |
| 2026-04-15 20:53 | 41.79620 | 16.36548 | 31942 ft | 371 kts | 142° |
| 2026-04-15 20:53 | 41.77697 | 16.38865 | 31172 ft | 372 kts | 141° |
| 2026-04-15 20:53 | 41.75770 | 16.41189 | 30537 ft | 370 kts | 141° |
| 2026-04-15 20:54 | 41.73861 | 16.43491 | 29912 ft | 368 kts | 140° |
| 2026-04-15 20:54 | 41.71968 | 16.45774 | 29255 ft | 364 kts | 140° |
| 2026-04-15 20:54 | 41.70096 | 16.48028 | 28616 ft | 360 kts | 140° |
| 2026-04-15 20:54 | 41.68265 | 16.50232 | 27994 ft | 357 kts | 140° |
| 2026-04-15 20:55 | 41.66427 | 16.52441 | 27385 ft | 353 kts | 139° |
| 2026-04-15 20:55 | 41.64606 | 16.54629 | 26778 ft | 351 kts | 139° |
| 2026-04-15 20:55 | 41.62797 | 16.56800 | 26177 ft | 348 kts | 139° |
| 2026-04-15 20:55 | 41.60995 | 16.58960 | 25591 ft | 346 kts | 139° |
| 2026-04-15 20:56 | 41.59211 | 16.61099 | 25026 ft | 343 kts | 138° |
| 2026-04-15 20:56 | 41.57436 | 16.63224 | 24467 ft | 341 kts | 138° |
| 2026-04-15 20:56 | 41.56000 | 16.64942 | 24020 ft | 340 kts | 138° |
| 2026-04-15 20:56 | 41.54262 | 16.67020 | 23426 ft | 338 kts | 137° |
| 2026-04-15 20:57 | 41.52515 | 16.69109 | 22835 ft | 335 kts | 137° |
| 2026-04-15 20:57 | 41.50761 | 16.71203 | 22263 ft | 332 kts | 137° |
| 2026-04-15 20:57 | 41.49047 | 16.73249 | 21697 ft | 329 kts | 137° |
| 2026-04-15 20:57 | 41.47363 | 16.75257 | 21143 ft | 327 kts | 137° |
| 2026-04-15 20:58 | 41.45673 | 16.77270 | 20616 ft | 324 kts | 137° |
| 2026-04-15 20:58 | 41.43999 | 16.79264 | 20081 ft | 321 kts | 137° |
| 2026-04-15 20:58 | 41.42335 | 16.81246 | 19572 ft | 319 kts | 137° |
| 2026-04-15 20:58 | 41.40684 | 16.83208 | 19062 ft | 316 kts | 137° |
| 2026-04-15 20:59 | 41.39049 | 16.85149 | 18567 ft | 314 kts | 137° |
| 2026-04-15 20:59 | 41.37459 | 16.87109 | 18040 ft | 310 kts | 133° |
| 2026-04-15 20:59 | 41.36003 | 16.89215 | 17513 ft | 307 kts | 130° |
| 2026-04-15 20:59 | 41.34610 | 16.91348 | 16995 ft | 303 kts | 129° |
| 2026-04-15 21:00 | 41.33253 | 16.93441 | 16471 ft | 301 kts | 130° |
| 2026-04-15 21:00 | 41.31882 | 16.95541 | 15961 ft | 299 kts | 130° |
| 2026-04-15 21:00 | 41.30521 | 16.97611 | 15476 ft | 296 kts | 130° |
| 2026-04-15 21:00 | 41.29162 | 16.99667 | 15074 ft | 293 kts | 130° |
| 2026-04-15 21:01 | 41.27821 | 17.01688 | 14628 ft | 290 kts | 130° |
| 2026-04-15 21:01 | 41.26487 | 17.03692 | 14130 ft | 288 kts | 130° |
| 2026-04-15 21:01 | 41.25158 | 17.05686 | 13639 ft | 286 kts | 130° |
| 2026-04-15 21:01 | 41.23841 | 17.07660 | 13224 ft | 286 kts | 130° |
| 2026-04-15 21:02 | 41.22523 | 17.09634 | 12879 ft | 285 kts | 130° |
| 2026-04-15 21:02 | 41.21210 | 17.11600 | 12554 ft | 283 kts | 130° |
| 2026-04-15 21:02 | 41.19901 | 17.13555 | 12237 ft | 282 kts | 130° |
| 2026-04-15 21:02 | 41.18603 | 17.15491 | 11917 ft | 280 kts | 130° |
| 2026-04-15 21:03 | 41.17306 | 17.17423 | 11548 ft | 281 kts | 130° |
| 2026-04-15 21:03 | 41.16001 | 17.19364 | 11233 ft | 280 kts | 130° |
| 2026-04-15 21:03 | 41.14719 | 17.21268 | 10925 ft | 279 kts | 130° |
| 2026-04-15 21:03 | 41.13425 | 17.23189 | 10614 ft | 278 kts | 130° |
| 2026-04-15 21:04 | 41.12139 | 17.25097 | 10309 ft | 277 kts | 130° |
| 2026-04-15 21:04 | 41.10869 | 17.26980 | 10171 ft | 269 kts | 130° |
| 2026-04-15 21:04 | 41.09644 | 17.28796 | 9898 ft | 267 kts | 130° |
| 2026-04-15 21:04 | 41.08406 | 17.30630 | 9604 ft | 265 kts | 130° |
| 2026-04-15 21:05 | 41.07177 | 17.32451 | 9304 ft | 264 kts | 130° |
| 2026-04-15 21:05 | 41.05959 | 17.34255 | 9034 ft | 262 kts | 131° |
| 2026-04-15 21:05 | 41.04745 | 17.36050 | 8760 ft | 260 kts | 131° |
| 2026-04-15 21:05 | 41.03544 | 17.37826 | 8486 ft | 258 kts | 131° |
| 2026-04-15 21:06 | 41.02350 | 17.39590 | 8217 ft | 256 kts | 131° |
| 2026-04-15 21:06 | 41.01161 | 17.41347 | 7917 ft | 255 kts | 131° |
| 2026-04-15 21:06 | 40.99973 | 17.43100 | 7605 ft | 255 kts | 131° |
| 2026-04-15 21:06 | 40.99189 | 17.44257 | 7416 ft | 253 kts | 131° |
| 2026-04-15 21:07 | 40.98022 | 17.45977 | 7144 ft | 250 kts | 131° |
| 2026-04-15 21:07 | 40.96863 | 17.47685 | 6881 ft | 249 kts | 131° |
| 2026-04-15 21:07 | 40.95707 | 17.49389 | 6621 ft | 247 kts | 132° |
| 2026-04-15 21:07 | 40.94192 | 17.51620 | 6258 ft | 245 kts | 132° |
| 2026-04-15 21:08 | 40.93421 | 17.52755 | 6079 ft | 244 kts | 132° |
| 2026-04-15 21:08 | 40.92458 | 17.54171 | 5844 ft | 243 kts | 131° |
| 2026-04-15 21:08 | 40.91328 | 17.55831 | 5578 ft | 242 kts | 131° |
| 2026-04-15 21:08 | 40.90217 | 17.57462 | 5312 ft | 241 kts | 131° |
| 2026-04-15 21:09 | 40.89097 | 17.59105 | 5049 ft | 239 kts | 131° |
| 2026-04-15 21:09 | 40.88206 | 17.60929 | 4874 ft | 233 kts | 109° |
| 2026-04-15 21:09 | 40.87780 | 17.62955 | 4774 ft | 225 kts | 105° |
| 2026-04-15 21:09 | 40.87394 | 17.64936 | 4649 ft | 218 kts | 104° |
| 2026-04-15 21:10 | 40.86783 | 17.66712 | 4541 ft | 210 kts | 127° |
| 2026-04-15 21:10 | 40.85808 | 17.68143 | 4492 ft | 212 kts | 133° |
| 2026-04-15 21:10 | 40.84763 | 17.69542 | 4399 ft | 216 kts | 133° |
| 2026-04-15 21:10 | 40.83706 | 17.70953 | 4161 ft | 216 kts | 133° |
| 2026-04-15 21:11 | 40.82669 | 17.72343 | 3939 ft | 214 kts | 133° |
| 2026-04-15 21:11 | 40.81625 | 17.73746 | 3703 ft | 213 kts | 133° |
| 2026-04-15 21:11 | 40.80625 | 17.75180 | 3467 ft | 212 kts | 124° |
| 2026-04-15 21:11 | 40.79817 | 17.76802 | 3234 ft | 210 kts | 120° |
| 2026-04-15 21:12 | 40.79068 | 17.78456 | 2991 ft | 210 kts | 123° |
| 2026-04-15 21:12 | 40.78049 | 17.79855 | 2787 ft | 214 kts | 137° |
| 2026-04-15 21:12 | 40.76942 | 17.81158 | 2559 ft | 211 kts | 137° |
| 2026-04-15 21:12 | 40.75862 | 17.82450 | 2260 ft | 208 kts | 136° |
| 2026-04-15 21:13 | 40.74808 | 17.83726 | 1995 ft | 202 kts | 137° |
| 2026-04-15 21:13 | 40.73800 | 17.84952 | 1709 ft | 193 kts | 136° |
| 2026-04-15 21:13 | 40.72837 | 17.86127 | 1457 ft | 184 kts | 136° |
| 2026-04-15 21:13 | 40.71931 | 17.87233 | 1220 ft | 176 kts | 136° |
| 2026-04-15 21:14 | 40.71061 | 17.88299 | 1070 ft | 163 kts | 136° |
| 2026-04-15 21:14 | 40.70241 | 17.89304 | 991 ft | 161 kts | 136° |
| 2026-04-15 21:14 | 40.69431 | 17.90335 | 711 ft | 158 kts | 137° |
| 2026-04-15 21:14 | 40.68651 | 17.91276 | 537 ft | 152 kts | 135° |
| 2026-04-15 21:15 | 40.67888 | 17.92190 | 233 ft | 145 kts | 137° |
| 2026-04-15 21:15 | 40.67173 | 17.93066 | 48 ft | 133 kts | 136° |
| 2026-04-15 21:15 | 40.66573 | 17.93793 | 39 ft | 100 kts | 137° |
| 2026-04-15 21:15 | 40.66171 | 17.94284 | 39 ft | 55 kts | 136° |
| 2026-04-15 21:16 | 40.66002 | 17.94493 | 38 ft | 22 kts | 136° |
| 2026-04-15 21:16 | 40.65916 | 17.94511 | 38 ft | 13 kts | 227° |
| 2026-04-15 21:16 | 40.65861 | 17.94418 | 42 ft | 13 kts | 233° |
| 2026-04-15 21:16 | 40.65812 | 17.94333 | 42 ft | 12 kts | 232° |
| 2026-04-15 21:17 | 40.65752 | 17.94231 | 43 ft | 17 kts | 231° |
| 2026-04-15 21:17 | 40.65684 | 17.94115 | 42 ft | 13 kts | 233° |
| 2026-04-15 21:17 | 40.65655 | 17.94061 | 43 ft | 3 kts | 252° |
| 2026-04-15 21:17 | 40.65665 | 17.94038 | 43 ft | 4 kts | 315° |
| 2026-04-15 21:18 | 40.65691 | 17.94012 | 43 ft | 6 kts | 322° |
| 2026-04-15 21:18 | 40.65716 | 17.93987 | 43 ft | 1 kts | 323° |
| 2026-04-15 21:18 | 40.65721 | 17.93982 | 43 ft | 1 kts | 323° |
| 2026-04-15 21:18 | 40.65727 | 17.93976 | 43 ft | 1 kts | 322° |
| 2026-04-15 21:19 | 40.65728 | 17.93975 | 43 ft | 0 kts | 322° |